Terminal Aerodrome Forecast
Issued by NWS

Home | Current Version | Previous Version | Text Only | Print | Product List | Glossary On
Versions: 1 2 3 4 5 6 7 8 9 10 11 12 13 14 15 16 17 18 19 20 21 22 23 24 25 26 27 28 29 30 31 32
000
FTUS44 KLIX 281741
TAFHUM
TAF
KHUM 281741Z 2818/2918 12005KT P6SM BKN120
     FM282100 14009KT P6SM OVC040
      TEMPO 2821/2901 4SM TSRA OVC025CB
     FM290300 13009KT P6SM SHRA VCTS OVC050CB
     FM290600 15010KT P6SM OVC050 PROB30 2906/2912 4SM TSRA OVC025CB
     FM291200 17009KT P6SM SHRA VCTS OVC030CB
     FM291400 18010KT P6SM SHRA VCTS OVC015CB
     FM291600 18010KT P6SM SHRA VCTS BKN020CB=

USA.gov is the U.S. government's official web portal to all federal, state and local government web resources and services.